Terminal Aerodrome Forecast
Issued by NWS

Current Version | Previous Version | Text Only | Print | Product List | Glossary On
Versions: 1 2 3 4 5 6 7 8 9 10 11 12 13 14 15 16 17 18 19 20 21 22 23 24 25 26 27 28 29 30 31 32 33 34 35 36 37 38 39 40 41 42 43 44 45 46
000
FTUS41 KGYX 220843 AAA
TAFMHT
TAF AMD
KMHT 220843Z 2209/2306 00000KT P6SM BKN180
     FM221200 00000KT 6SM -RA OVC030
     FM221500 00000KT 2SM -RA OVC005
     FM221700 VRB03KT P6SM OVC006
     FM222200 32008KT P6SM SCT100=

USA.gov is the U.S. government's official web portal to all federal, state and local government web resources and services.